createdAt,value
2019-03-11T00:00:39.943Z,47.49
2019-03-11T00:01:44.639Z,47.66
2019-03-11T00:02:48.309Z,47.77
2019-03-11T00:03:51.942Z,48.41
2019-03-11T00:04:55.582Z,47.94
2019-03-11T00:05:59.217Z,48.01
2019-03-11T00:07:02.859Z,48.71
2019-03-11T00:08:06.537Z,48.71
2019-03-11T00:09:10.180Z,48.24
2019-03-11T00:10:13.817Z,48.02
2019-03-11T00:11:17.465Z,48.12
2019-03-11T00:12:21.097Z,48.19
2019-03-11T00:13:24.962Z,48.19
2019-03-11T00:14:28.601Z,48.43
2019-03-11T00:15:32.242Z,48.47
2019-03-11T00:16:35.889Z,48.22
2019-03-11T00:17:39.526Z,48.06
2019-03-11T00:18:43.278Z,48.00
2019-03-11T00:19:46.915Z,48.40
2019-03-11T00:20:50.545Z,48.58
2019-03-11T00:21:54.177Z,48.58
2019-03-11T00:22:57.886Z,48.22
2019-03-11T00:24:01.577Z,47.84
2019-03-11T00:25:06.033Z,48.44
2019-03-11T00:26:09.674Z,48.44
2019-03-11T00:27:13.308Z,48.24
2019-03-11T00:28:17.293Z,48.01
2019-03-11T00:29:20.987Z,48.01
2019-03-11T00:30:24.625Z,47.98
2019-03-11T00:31:28.270Z,47.99
2019-03-11T00:32:31.906Z,48.09
2019-03-11T00:33:35.615Z,47.71
2019-03-11T00:34:39.214Z,47.52
2019-03-11T00:35:42.859Z,47.86
2019-03-11T00:36:46.831Z,47.86
2019-03-11T00:37:50.506Z,47.86
2019-03-11T00:38:54.140Z,47.84
2019-03-11T00:39:57.785Z,48.34
2019-03-11T00:41:01.332Z,48.34
2019-03-11T00:42:04.986Z,48.16
2019-03-11T00:43:08.617Z,47.66
2019-03-11T00:44:12.258Z,48.06
2019-03-11T00:45:16.403Z,48.06
2019-03-11T00:46:20.038Z,48.11
2019-03-11T00:47:23.749Z,47.99
2019-03-11T00:48:27.374Z,47.89
2019-03-11T00:49:31.008Z,47.89
2019-03-11T00:50:34.681Z,47.89
2019-03-11T00:51:38.242Z,47.84
2019-03-11T00:52:42.027Z,48.10
2019-03-11T00:53:45.825Z,48.34
2019-03-11T00:54:49.855Z,48.34
2019-03-11T00:55:53.515Z,48.07
2019-03-11T00:56:57.134Z,48.43
2019-03-11T00:58:00.767Z,48.72
2019-03-11T00:59:04.399Z,48.72
2019-03-11T01:00:25.399Z,48.96
2019-03-11T01:01:29.065Z,48.96
2019-03-11T01:02:32.620Z,49.00
2019-03-11T01:03:36.255Z,49.24
2019-03-11T01:04:39.817Z,49.24
2019-03-11T01:05:43.448Z,49.25
2019-03-11T01:06:47.103Z,49.04
2019-03-11T01:07:50.728Z,48.82
2019-03-11T01:08:54.369Z,48.82
2019-03-11T01:09:57.996Z,48.90
2019-03-11T01:11:01.637Z,49.06
2019-03-11T01:12:05.291Z,49.19
2019-03-11T01:13:08.915Z,49.17
2019-03-11T01:14:12.545Z,49.30
2019-03-11T01:15:16.177Z,49.29
2019-03-11T01:16:19.803Z,49.29
2019-03-11T01:17:23.463Z,49.46
2019-03-11T01:18:27.087Z,49.57
2019-03-11T01:19:30.712Z,49.58
2019-03-11T01:20:34.342Z,49.60
2019-03-11T01:21:37.970Z,49.53
2019-03-11T01:22:41.613Z,49.32
2019-03-11T01:23:45.273Z,49.83
2019-03-11T01:24:48.884Z,49.83
2019-03-11T01:25:52.621Z,49.33
2019-03-11T01:26:56.261Z,49.70
2019-03-11T01:27:59.903Z,49.16
2019-03-11T01:29:03.537Z,49.16
2019-03-11T01:30:10.266Z,49.33
2019-03-11T01:31:13.831Z,49.58
2019-03-11T01:32:17.460Z,49.77
2019-03-11T01:33:21.135Z,49.91
2019-03-11T01:34:24.690Z,49.99
2019-03-11T01:35:28.310Z,49.77
2019-03-11T01:36:31.939Z,49.71
2019-03-11T01:37:35.489Z,50.08
2019-03-11T01:38:39.137Z,50.58
2019-03-11T01:39:42.756Z,50.17
2019-03-11T01:40:46.386Z,50.03
2019-03-11T01:41:50.026Z,50.17
2019-03-11T01:42:53.657Z,50.41
2019-03-11T01:43:57.323Z,50.76
2019-03-11T01:45:00.953Z,50.70
2019-03-11T01:46:04.586Z,50.55
2019-03-11T01:47:08.146Z,50.33
2019-03-11T01:48:11.775Z,50.43
2019-03-11T01:49:15.446Z,50.81
2019-03-11T01:50:19.079Z,50.82
2019-03-11T01:51:22.716Z,51.00
2019-03-11T01:52:26.345Z,51.23
2019-03-11T01:53:29.975Z,51.38
2019-03-11T01:54:33.562Z,51.28
2019-03-11T01:55:37.192Z,51.48
2019-03-11T01:56:40.826Z,51.36
2019-03-11T01:57:44.455Z,51.17
2019-03-11T01:58:48.089Z,51.26
2019-03-11T01:59:52.022Z,51.10
2019-03-11T02:00:55.828Z,51.50
2019-03-11T02:01:59.469Z,51.43
2019-03-11T02:03:03.105Z,51.33
2019-03-11T02:04:06.889Z,51.29
2019-03-11T02:05:11.184Z,51.35
2019-03-11T02:06:14.816Z,51.46
2019-03-11T02:07:18.462Z,51.58
2019-03-11T02:08:22.100Z,51.91
2019-03-11T02:09:25.664Z,52.11
2019-03-11T02:10:29.340Z,52.23
2019-03-11T02:11:32.975Z,52.34
2019-03-11T02:12:36.708Z,52.29
2019-03-11T02:13:40.345Z,52.06
2019-03-11T02:14:43.976Z,52.57
2019-03-11T02:15:47.640Z,52.72
2019-03-11T02:16:51.277Z,53.13
2019-03-11T02:17:54.921Z,53.27
2019-03-11T02:18:58.561Z,53.37
2019-03-11T02:20:02.187Z,53.31
2019-03-11T02:21:05.860Z,53.21
2019-03-11T02:22:09.491Z,53.15
2019-03-11T02:23:13.133Z,53.11
2019-03-11T02:24:16.693Z,53.39
2019-03-11T02:25:20.328Z,53.69
2019-03-11T02:26:24.040Z,54.08
2019-03-11T02:27:27.634Z,54.11
2019-03-11T02:28:31.258Z,53.90
2019-03-11T02:29:34.886Z,53.88
2019-03-11T02:30:38.541Z,53.72
2019-03-11T02:31:42.194Z,53.91
2019-03-11T02:32:45.937Z,54.07
2019-03-11T02:33:49.573Z,53.88
2019-03-11T02:34:53.202Z,53.62
2019-03-11T02:35:56.907Z,53.50
2019-03-11T02:37:00.631Z,53.32
2019-03-11T02:38:04.275Z,53.24
2019-03-11T02:39:08.080Z,53.28
2019-03-11T02:40:14.430Z,53.71
2019-03-11T02:41:18.166Z,53.61
2019-03-11T02:42:21.840Z,53.42
2019-03-11T02:43:25.467Z,53.45
2019-03-11T02:44:29.143Z,53.63
2019-03-11T02:45:32.764Z,53.40
2019-03-11T02:46:36.401Z,53.38
2019-03-11T02:47:40.001Z,53.27
2019-03-11T02:48:43.558Z,53.27
2019-03-11T02:49:47.191Z,52.87
2019-03-11T02:50:50.838Z,52.78
2019-03-11T02:51:54.814Z,53.01
2019-03-11T02:52:58.399Z,53.02
2019-03-11T02:54:02.031Z,52.88
2019-03-11T02:55:06.876Z,52.80
2019-03-11T02:56:10.574Z,52.76
2019-03-11T02:57:14.201Z,52.64
2019-03-11T02:58:17.864Z,52.70
2019-03-11T02:59:21.490Z,52.85
2019-03-11T03:00:25.126Z,53.25
2019-03-11T03:01:36.017Z,53.23
2019-03-11T03:02:47.205Z,53.05
2019-03-11T03:03:52.619Z,53.17
2019-03-11T03:04:57.889Z,53.53
2019-03-11T03:06:03.559Z,53.41
2019-03-11T03:07:07.242Z,53.53
2019-03-11T03:08:10.938Z,54.27
2019-03-11T03:09:15.036Z,55.00
2019-03-11T03:10:18.757Z,54.91
2019-03-11T03:11:22.394Z,54.86
2019-03-11T03:12:26.030Z,55.20
2019-03-11T03:13:29.653Z,55.14
2019-03-11T03:14:33.315Z,55.33
2019-03-11T03:15:36.943Z,55.26
2019-03-11T03:16:40.572Z,55.13
2019-03-11T03:17:44.202Z,55.11
2019-03-11T03:18:47.767Z,55.14
2019-03-11T03:19:51.532Z,55.02
2019-03-11T03:20:55.236Z,54.81
2019-03-11T03:21:58.815Z,54.63
2019-03-11T03:23:02.456Z,54.64
2019-03-11T03:24:06.091Z,54.66
2019-03-11T03:25:11.564Z,54.65
2019-03-11T03:26:15.207Z,54.56
2019-03-11T03:27:18.865Z,54.48
2019-03-11T03:28:22.476Z,54.58
2019-03-11T03:29:26.108Z,54.81
2019-03-11T03:30:29.814Z,54.94
2019-03-11T03:31:33.410Z,55.21
2019-03-11T03:32:37.047Z,55.14
2019-03-11T03:33:41.087Z,55.03
2019-03-11T03:34:44.781Z,54.95
2019-03-11T03:35:49.046Z,54.78
2019-03-11T03:36:52.617Z,54.59
2019-03-11T03:37:56.254Z,54.64
2019-03-11T03:38:59.890Z,54.67
2019-03-11T03:40:04.628Z,54.55
2019-03-11T03:41:08.605Z,54.25
2019-03-11T03:42:13.620Z,54.00
2019-03-11T03:43:17.789Z,53.67
2019-03-11T03:44:21.421Z,53.54
2019-03-11T03:45:27.293Z,53.69
2019-03-11T03:46:30.955Z,53.93
2019-03-11T03:47:34.588Z,53.79
2019-03-11T03:48:38.294Z,53.56
2019-03-11T03:49:41.970Z,53.48
2019-03-11T03:50:46.011Z,53.42
2019-03-11T03:51:49.717Z,53.20
2019-03-11T03:52:53.382Z,53.55
2019-03-11T03:53:57.013Z,53.55
2019-03-11T03:55:00.649Z,53.50
2019-03-11T03:56:04.274Z,53.72
2019-03-11T03:57:07.940Z,53.86
2019-03-11T03:58:11.980Z,53.91
2019-03-11T03:59:15.626Z,53.57
2019-03-11T04:00:19.267Z,54.14
2019-03-11T04:01:22.903Z,54.22
2019-03-11T04:02:26.588Z,54.04
2019-03-11T04:03:30.518Z,53.95
2019-03-11T04:04:34.081Z,53.90
2019-03-11T04:05:37.757Z,53.91
2019-03-11T04:06:41.387Z,53.80
2019-03-11T04:07:45.054Z,53.80
2019-03-11T04:08:48.686Z,53.72
2019-03-11T04:09:52.325Z,53.70
2019-03-11T04:10:55.970Z,53.82
2019-03-11T04:11:59.593Z,53.86
2019-03-11T04:13:03.259Z,53.95
2019-03-11T04:14:07.143Z,54.10
2019-03-11T04:15:11.752Z,54.17
2019-03-11T04:16:15.587Z,54.18
2019-03-11T04:17:19.313Z,54.72
2019-03-11T04:18:23.887Z,54.72
2019-03-11T04:19:29.452Z,54.71
2019-03-11T04:20:32.876Z,54.62
2019-03-11T04:21:36.514Z,54.57
2019-03-11T04:22:40.726Z,54.75
2019-03-11T04:23:44.494Z,54.61
2019-03-11T04:24:48.121Z,54.68
2019-03-11T04:25:51.757Z,54.62
2019-03-11T04:26:55.500Z,54.72
2019-03-11T04:27:59.133Z,54.90
2019-03-11T04:29:02.792Z,54.85
2019-03-11T04:30:14.862Z,54.76
2019-03-11T04:31:18.500Z,54.81
2019-03-11T04:32:22.144Z,54.98
2019-03-11T04:33:25.765Z,55.12
2019-03-11T04:34:29.845Z,55.28
2019-03-11T04:35:33.476Z,55.30
2019-03-11T04:36:37.198Z,55.28
2019-03-11T04:37:40.822Z,55.22
2019-03-11T04:38:44.401Z,55.21
2019-03-11T04:39:48.062Z,55.38
2019-03-11T04:40:51.734Z,55.71
2019-03-11T04:41:55.361Z,54.91
2019-03-11T04:42:58.999Z,55.83
2019-03-11T04:44:02.639Z,57.95
2019-03-11T04:45:09.206Z,60.98
2019-03-11T04:46:12.843Z,62.00
2019-03-11T04:47:16.475Z,61.99
2019-03-11T04:48:20.110Z,61.29
2019-03-11T04:49:23.750Z,60.06
2019-03-11T04:50:27.445Z,63.57
2019-03-11T04:51:30.973Z,61.88
2019-03-11T04:52:35.022Z,61.42
2019-03-11T04:53:39.645Z,60.04
2019-03-11T04:54:43.282Z,59.56
2019-03-11T04:55:46.953Z,60.40
2019-03-11T04:56:50.591Z,59.87
2019-03-11T04:57:55.143Z,59.61
2019-03-11T04:59:09.836Z,60.46
2019-03-11T05:00:16.207Z,60.75
2019-03-11T05:01:20.266Z,60.41
2019-03-11T05:02:23.893Z,60.52
2019-03-11T05:03:27.519Z,60.69
2019-03-11T05:04:31.154Z,60.98
2019-03-11T05:05:34.787Z,61.26
2019-03-11T05:06:38.465Z,61.30
2019-03-11T05:07:42.097Z,61.01
2019-03-11T05:08:45.731Z,61.04
2019-03-11T05:09:49.371Z,60.99
2019-03-11T05:10:53.012Z,60.80
2019-03-11T05:11:56.684Z,61.17
2019-03-11T05:13:00.315Z,61.00
2019-03-11T05:14:03.954Z,61.16
2019-03-11T05:15:12.032Z,61.10
2019-03-11T05:16:15.660Z,61.24
2019-03-11T05:17:19.326Z,61.12
2019-03-11T05:18:22.961Z,61.36
2019-03-11T05:19:26.604Z,61.58
2019-03-11T05:20:30.219Z,61.58
2019-03-11T05:21:33.782Z,61.41
2019-03-11T05:22:37.459Z,61.65
2019-03-11T05:23:41.172Z,61.76
2019-03-11T05:24:44.927Z,63.46
2019-03-11T05:25:48.552Z,62.39
2019-03-11T05:26:52.583Z,62.41
2019-03-11T05:27:56.366Z,61.87
2019-03-11T05:28:59.929Z,61.66
2019-03-11T05:30:05.246Z,61.43
2019-03-11T05:31:08.975Z,61.09
2019-03-11T05:32:12.531Z,61.10
2019-03-11T05:33:18.379Z,61.06
2019-03-11T05:34:22.010Z,60.86
2019-03-11T05:35:25.573Z,60.85
2019-03-11T05:36:29.268Z,60.75
2019-03-11T05:37:32.912Z,60.58
2019-03-11T05:38:36.506Z,60.59
2019-03-11T05:39:40.141Z,60.75
2019-03-11T05:40:43.783Z,60.52
2019-03-11T05:41:47.773Z,60.12
2019-03-11T05:42:54.131Z,60.27
2019-03-11T05:43:57.798Z,60.23
2019-03-11T05:45:01.431Z,59.49
2019-03-11T05:46:05.069Z,59.71
2019-03-11T05:47:08.769Z,60.13
2019-03-11T05:48:12.433Z,59.71
2019-03-11T05:49:16.027Z,60.58
2019-03-11T05:50:19.969Z,59.79
2019-03-11T05:51:31.385Z,60.07
2019-03-11T05:52:29.374Z,59.66
2019-03-11T05:53:33.079Z,59.30
2019-03-11T05:54:36.991Z,59.29
2019-03-11T05:55:40.784Z,59.09
2019-03-11T05:56:44.415Z,59.42
2019-03-11T05:57:48.050Z,59.52
2019-03-11T05:58:51.756Z,59.38
2019-03-11T05:59:55.463Z,59.60
2019-03-11T06:00:59.104Z,59.37
2019-03-11T06:02:02.743Z,59.37
2019-03-11T06:03:09.172Z,59.12
2019-03-11T06:04:12.844Z,59.04
2019-03-11T06:05:16.515Z,58.22
2019-03-11T06:06:20.390Z,58.20
2019-03-11T06:07:24.035Z,58.65
2019-03-11T06:08:28.090Z,58.64
2019-03-11T06:09:31.722Z,58.38
2019-03-11T06:10:35.387Z,58.19
2019-03-11T06:11:41.819Z,58.65
2019-03-11T06:12:45.459Z,59.01
2019-03-11T06:13:49.243Z,59.37
2019-03-11T06:14:52.805Z,59.54
2019-03-11T06:15:56.472Z,59.46
2019-03-11T06:17:00.101Z,59.30
2019-03-11T06:18:03.742Z,59.42
2019-03-11T06:19:07.381Z,59.68
2019-03-11T06:20:30.239Z,59.86
2019-03-11T06:21:35.482Z,60.21
2019-03-11T06:22:39.047Z,60.20
2019-03-11T06:23:44.965Z,59.93
2019-03-11T06:24:48.603Z,60.08
2019-03-11T06:25:52.233Z,60.51
2019-03-11T06:26:55.905Z,60.36
2019-03-11T06:27:59.536Z,60.07
2019-03-11T06:29:03.180Z,59.88
2019-03-11T06:30:09.483Z,59.79
2019-03-11T06:31:13.151Z,59.97
2019-03-11T06:32:16.857Z,59.99
2019-03-11T06:33:20.503Z,59.67
2019-03-11T06:34:24.055Z,59.84
2019-03-11T06:35:27.759Z,59.30
2019-03-11T06:36:31.542Z,58.89
2019-03-11T06:37:35.275Z,58.16
2019-03-11T06:38:38.832Z,57.73
2019-03-11T06:39:42.600Z,57.73
2019-03-11T06:40:46.270Z,57.46
2019-03-11T06:41:49.904Z,57.45
2019-03-11T06:42:53.573Z,57.37
2019-03-11T06:43:57.209Z,56.55
2019-03-11T06:45:00.969Z,56.69
2019-03-11T06:46:05.014Z,55.77
2019-03-11T06:47:08.600Z,55.85
2019-03-11T06:48:12.261Z,56.00
2019-03-11T06:49:15.967Z,55.76
2019-03-11T06:50:19.716Z,55.12
2019-03-11T06:51:23.353Z,55.02
2019-03-11T06:52:26.989Z,54.77
2019-03-11T06:53:30.721Z,54.31
2019-03-11T06:54:34.429Z,54.09
2019-03-11T06:55:38.134Z,53.89
2019-03-11T06:56:41.766Z,53.77
2019-03-11T06:57:45.932Z,53.67
2019-03-11T06:58:49.827Z,53.31
2019-03-11T06:59:53.395Z,52.69
2019-03-11T07:00:57.042Z,52.37
2019-03-11T07:02:00.754Z,52.55
2019-03-11T07:03:04.717Z,50.97
2019-03-11T07:04:08.472Z,51.04
2019-03-11T07:05:20.125Z,50.67
2019-03-11T07:06:17.554Z,52.04
2019-03-11T07:07:21.189Z,52.04
2019-03-11T07:08:24.827Z,51.40
2019-03-11T07:09:31.926Z,49.14
2019-03-11T07:10:35.899Z,48.51
2019-03-11T07:11:39.521Z,48.51
2019-03-11T07:12:43.165Z,49.21
2019-03-11T07:13:46.931Z,48.17
2019-03-11T07:14:50.606Z,47.34
2019-03-11T07:15:54.238Z,47.06
2019-03-11T07:16:57.873Z,47.06
2019-03-11T07:18:01.525Z,46.04
2019-03-11T07:19:05.159Z,46.03
2019-03-11T07:20:17.519Z,46.03
2019-03-11T07:21:21.151Z,48.51
2019-03-11T07:22:24.794Z,48.51
2019-03-11T07:23:28.606Z,46.58
2019-03-11T07:24:32.319Z,48.89
2019-03-11T07:25:35.921Z,49.86
2019-03-11T07:26:39.559Z,47.19
2019-03-11T07:27:43.298Z,48.81
2019-03-11T07:28:47.010Z,48.81
2019-03-11T07:29:50.643Z,47.08
2019-03-11T07:30:54.401Z,47.69
2019-03-11T07:31:57.955Z,45.70
2019-03-11T07:33:01.741Z,45.70
2019-03-11T07:34:05.638Z,45.12
2019-03-11T07:35:13.713Z,44.91
2019-03-11T07:36:17.458Z,44.14
2019-03-11T07:37:24.478Z,44.03
2019-03-11T07:38:28.429Z,43.99
2019-03-11T07:39:32.721Z,45.35
2019-03-11T07:40:38.284Z,44.20
2019-03-11T07:41:42.073Z,42.71
2019-03-11T07:42:45.968Z,42.75
2019-03-11T07:43:49.701Z,43.17
2019-03-11T07:44:53.912Z,42.63
2019-03-11T07:45:57.599Z,42.98
2019-03-11T07:47:01.418Z,42.07
2019-03-11T07:48:05.526Z,40.47
2019-03-11T07:49:12.008Z,40.47
2019-03-11T07:50:17.256Z,40.19
2019-03-11T07:51:21.403Z,39.67
2019-03-11T07:52:26.126Z,38.68
2019-03-11T07:53:30.204Z,37.63
2019-03-11T07:54:35.984Z,37.37
2019-03-11T07:55:39.342Z,37.14
2019-03-11T07:56:46.445Z,37.04
2019-03-11T07:57:50.538Z,37.08
2019-03-11T07:58:57.127Z,37.46
2019-03-11T08:00:00.930Z,38.14
2019-03-11T08:01:04.541Z,36.40
2019-03-11T08:02:08.479Z,39.08
2019-03-11T08:03:14.675Z,36.70
2019-03-11T08:04:18.444Z,36.77
2019-03-11T08:05:22.305Z,36.14
2019-03-11T08:06:26.066Z,34.48
2019-03-11T08:07:29.997Z,34.07
2019-03-11T08:08:33.838Z,35.81
2019-03-11T08:09:38.753Z,34.31
2019-03-11T08:10:43.106Z,33.96
2019-03-11T08:11:47.053Z,33.51
2019-03-11T08:12:51.064Z,33.29
2019-03-11T08:13:55.075Z,33.58
2019-03-11T08:15:00.983Z,34.07
2019-03-11T08:16:04.693Z,33.17
2019-03-11T08:17:08.441Z,33.72
2019-03-11T08:18:12.094Z,33.98
2019-03-11T08:19:15.840Z,33.36
2019-03-11T08:20:22.918Z,33.39
2019-03-11T08:21:26.711Z,33.99
2019-03-11T08:22:30.354Z,35.42
2019-03-11T08:23:35.812Z,34.54
2019-03-11T08:24:40.078Z,34.32
2019-03-11T08:25:43.727Z,34.98
2019-03-11T08:26:47.486Z,33.10
2019-03-11T08:27:51.433Z,32.99
2019-03-11T08:28:55.168Z,33.05
2019-03-11T08:30:00.345Z,33.32
2019-03-11T08:31:04.292Z,32.96
2019-03-11T08:32:08.110Z,34.09
2019-03-11T08:33:13.306Z,34.23
2019-03-11T08:34:17.554Z,33.27
2019-03-11T08:35:22.405Z,33.65
2019-03-11T08:36:26.046Z,33.65
2019-03-11T08:37:32.732Z,32.79
2019-03-11T08:38:36.712Z,32.50
2019-03-11T08:39:40.356Z,32.63
2019-03-11T08:40:46.389Z,32.09
2019-03-11T08:41:50.072Z,31.54
2019-03-11T08:42:53.706Z,31.64
2019-03-11T08:43:57.338Z,32.10
2019-03-11T08:45:00.960Z,32.43
2019-03-11T08:46:04.624Z,31.98
2019-03-11T08:47:08.331Z,30.98
2019-03-11T08:48:11.899Z,30.37
2019-03-11T08:49:15.535Z,30.42
2019-03-11T08:50:19.171Z,29.69
2019-03-11T08:51:24.986Z,29.75
2019-03-11T08:52:28.696Z,30.05
2019-03-11T08:53:32.459Z,28.78
2019-03-11T08:54:36.587Z,29.13
2019-03-11T08:55:40.205Z,29.54
2019-03-11T08:56:44.319Z,29.42
2019-03-11T08:57:47.950Z,28.82
2019-03-11T08:58:51.972Z,29.02
2019-03-11T08:59:55.541Z,28.03
2019-03-11T09:00:59.176Z,28.20
2019-03-11T09:02:02.834Z,29.53
2019-03-11T09:03:06.894Z,29.61
2019-03-11T09:04:10.509Z,30.17
2019-03-11T09:05:14.246Z,30.56
2019-03-11T09:06:17.872Z,31.60
2019-03-11T09:07:21.959Z,29.55
2019-03-11T09:08:25.594Z,29.21
2019-03-11T09:09:31.604Z,28.88
2019-03-11T09:10:34.582Z,28.65
2019-03-11T09:11:38.210Z,28.32
2019-03-11T09:12:41.905Z,27.54
2019-03-11T09:13:45.628Z,27.70
2019-03-11T09:14:49.392Z,26.75
2019-03-11T09:15:53.160Z,26.36
2019-03-11T09:16:56.815Z,26.90
2019-03-11T09:18:00.477Z,26.34
2019-03-11T09:19:04.167Z,26.46
2019-03-11T09:20:10.796Z,25.39
2019-03-11T09:21:14.522Z,26.38
2019-03-11T09:22:18.220Z,26.15
2019-03-11T09:23:21.894Z,25.67
2019-03-11T09:24:25.528Z,25.60
2019-03-11T09:25:29.809Z,25.44
2019-03-11T09:26:33.430Z,26.60
2019-03-11T09:27:36.928Z,26.32
2019-03-11T09:28:40.595Z,25.81
2019-03-11T09:29:44.225Z,25.96
2019-03-11T09:30:47.927Z,26.36
2019-03-11T09:31:51.620Z,25.58
2019-03-11T09:32:55.351Z,23.78
2019-03-11T09:33:59.006Z,23.84
2019-03-11T09:35:02.648Z,23.89
2019-03-11T09:36:06.290Z,24.31
2019-03-11T09:37:09.982Z,24.11
2019-03-11T09:38:13.713Z,23.84
2019-03-11T09:39:17.422Z,23.33
2019-03-11T09:40:24.293Z,23.61
2019-03-11T09:41:28.070Z,22.97
2019-03-11T09:42:31.706Z,22.96
2019-03-11T09:43:35.455Z,23.25
2019-03-11T09:44:39.152Z,22.97
2019-03-11T09:45:42.786Z,22.85
2019-03-11T09:46:46.422Z,22.56
2019-03-11T09:47:50.063Z,23.62
2019-03-11T09:48:53.785Z,23.33
2019-03-11T09:49:57.505Z,22.88
2019-03-11T09:51:01.465Z,22.42
2019-03-11T09:52:05.135Z,23.71
2019-03-11T09:53:08.903Z,22.75
2019-03-11T09:54:14.277Z,22.27
2019-03-11T09:55:26.051Z,22.09
2019-03-11T09:56:30.134Z,22.90
2019-03-11T09:57:34.018Z,22.11
2019-03-11T09:58:54.211Z,22.24
2019-03-11T09:59:57.891Z,22.08
2019-03-11T10:01:01.580Z,22.36
2019-03-11T10:02:05.481Z,22.99
2019-03-11T10:03:09.138Z,22.16
2019-03-11T10:04:12.864Z,22.42
2019-03-11T10:05:16.501Z,21.16
2019-03-11T10:06:20.181Z,21.68
2019-03-11T10:07:23.898Z,22.42
2019-03-11T10:08:27.532Z,22.07
2019-03-11T10:09:31.173Z,21.63
2019-03-11T10:10:34.886Z,21.00
2019-03-11T10:11:38.575Z,20.20
2019-03-11T10:12:42.211Z,20.06
2019-03-11T10:13:46.146Z,20.90
2019-03-11T10:14:51.450Z,20.85
2019-03-11T10:15:55.222Z,20.28
2019-03-11T10:16:58.884Z,20.77
2019-03-11T10:18:02.521Z,20.80
2019-03-11T10:19:06.176Z,21.29
2019-03-11T10:20:15.321Z,21.27
2019-03-11T10:21:19.277Z,21.30
2019-03-11T10:22:22.940Z,21.54
2019-03-11T10:23:32.060Z,21.86
2019-03-11T10:24:32.269Z,21.12
2019-03-11T10:25:35.905Z,20.67
2019-03-11T10:26:39.540Z,20.96
2019-03-11T10:27:43.202Z,20.95
2019-03-11T10:28:46.839Z,21.52
2019-03-11T10:29:50.409Z,21.65
2019-03-11T10:30:54.105Z,22.81
2019-03-11T10:31:57.806Z,21.83
2019-03-11T10:33:01.483Z,21.52
2019-03-11T10:34:05.202Z,22.01
2019-03-11T10:35:30.146Z,21.44
2019-03-11T10:36:16.666Z,21.32
2019-03-11T10:37:20.296Z,20.71
2019-03-11T10:38:24.379Z,20.76
2019-03-11T10:39:28.017Z,21.12
2019-03-11T10:40:32.528Z,21.85
2019-03-11T10:41:36.219Z,21.52
2019-03-11T10:42:39.915Z,21.65
2019-03-11T10:43:43.576Z,20.32
2019-03-11T10:44:47.214Z,20.62
2019-03-11T10:45:51.203Z,20.44
2019-03-11T10:46:54.845Z,20.09
2019-03-11T10:47:58.580Z,19.59
2019-03-11T10:49:02.323Z,19.88
2019-03-11T10:50:08.760Z,20.19
2019-03-11T10:51:12.391Z,19.97
2019-03-11T10:52:16.025Z,19.67
2019-03-11T10:53:19.709Z,20.74
2019-03-11T10:54:23.674Z,19.61
2019-03-11T10:55:27.901Z,19.81
2019-03-11T10:56:31.537Z,19.35
2019-03-11T10:57:35.183Z,19.62
2019-03-11T10:58:38.847Z,19.45
2019-03-11T10:59:42.558Z,19.16
2019-03-11T11:00:46.311Z,19.55
2019-03-11T11:01:50.346Z,19.18
2019-03-11T11:02:54.576Z,19.01
2019-03-11T11:03:58.308Z,18.88
2019-03-11T11:05:01.974Z,17.72
2019-03-11T11:06:05.608Z,17.20
2019-03-11T11:07:09.227Z,17.43
2019-03-11T11:08:12.812Z,18.04
2019-03-11T11:09:16.374Z,17.94
2019-03-11T11:10:20.343Z,18.27
2019-03-11T11:11:23.977Z,17.55
2019-03-11T11:12:27.600Z,16.81
2019-03-11T11:13:31.230Z,16.85
2019-03-11T11:14:34.872Z,16.83
2019-03-11T11:15:38.539Z,16.92
2019-03-11T11:16:42.173Z,17.14
2019-03-11T11:17:45.805Z,16.70
2019-03-11T11:18:49.373Z,16.61
2019-03-11T11:20:02.947Z,16.14
2019-03-11T11:20:59.346Z,16.22
2019-03-11T11:22:02.980Z,17.42
2019-03-11T11:23:06.622Z,18.12
2019-03-11T11:24:10.256Z,19.51
2019-03-11T11:25:28.473Z,19.37
2019-03-11T11:26:32.163Z,18.24
2019-03-11T11:27:36.666Z,18.79
2019-03-11T11:28:40.369Z,19.23
2019-03-11T11:29:43.998Z,19.07
2019-03-11T11:30:47.635Z,18.78
2019-03-11T11:31:51.374Z,19.43
2019-03-11T11:32:55.113Z,20.39
2019-03-11T11:33:58.756Z,20.06
2019-03-11T11:35:02.758Z,21.05
2019-03-11T11:36:06.515Z,21.57
2019-03-11T11:37:10.186Z,20.84
2019-03-11T11:38:13.819Z,20.89
2019-03-11T11:39:17.455Z,21.12
2019-03-11T11:40:26.078Z,20.87
2019-03-11T11:41:30.007Z,21.41
2019-03-11T11:42:33.675Z,21.79
2019-03-11T11:43:37.312Z,22.30
2019-03-11T11:44:40.880Z,23.25
2019-03-11T11:45:44.518Z,22.87
2019-03-11T11:46:48.144Z,22.52
2019-03-11T11:47:51.819Z,22.62
2019-03-11T11:48:55.441Z,22.76
2019-03-11T11:49:59.080Z,23.02
2019-03-11T11:51:02.787Z,23.19
2019-03-11T11:52:06.425Z,23.66
2019-03-11T11:53:10.119Z,23.51
2019-03-11T11:54:14.182Z,24.47
2019-03-11T11:55:22.680Z,24.58
2019-03-11T11:56:26.394Z,24.53
2019-03-11T11:57:30.342Z,25.18
2019-03-11T11:58:34.017Z,25.02
2019-03-11T11:59:37.573Z,25.15
2019-03-11T12:00:42.845Z,25.32
2019-03-11T12:01:46.490Z,26.34
2019-03-11T12:02:50.114Z,25.98
2019-03-11T12:03:53.772Z,25.63
2019-03-11T12:04:57.402Z,25.21
2019-03-11T12:06:01.031Z,24.99
2019-03-11T12:07:04.663Z,24.89
2019-03-11T12:08:08.299Z,25.20
2019-03-11T12:09:11.968Z,25.59
2019-03-11T12:10:20.621Z,25.92
2019-03-11T12:11:24.249Z,26.36
2019-03-11T12:12:28.296Z,26.51
2019-03-11T12:13:31.933Z,25.72
2019-03-11T12:14:35.596Z,25.66
2019-03-11T12:15:39.232Z,25.96
2019-03-11T12:16:42.869Z,25.51
2019-03-11T12:17:46.909Z,26.04
2019-03-11T12:18:50.573Z,25.87
2019-03-11T12:19:54.188Z,26.43
2019-03-11T12:20:57.826Z,26.23
2019-03-11T12:22:01.501Z,26.42
2019-03-11T12:23:05.269Z,24.76
2019-03-11T12:24:08.899Z,24.62
2019-03-11T12:25:14.569Z,23.04
2019-03-11T12:26:18.294Z,22.64
2019-03-11T12:27:21.920Z,22.72
2019-03-11T12:28:25.557Z,21.73
2019-03-11T12:29:30.711Z,21.32
2019-03-11T12:30:35.464Z,21.46
2019-03-11T12:31:39.195Z,20.26
2019-03-11T12:32:42.949Z,20.19
2019-03-11T12:33:46.578Z,20.64
2019-03-11T12:34:50.212Z,21.21
2019-03-11T12:35:53.880Z,21.58
2019-03-11T12:36:57.542Z,22.14
2019-03-11T12:38:01.154Z,23.04
2019-03-11T12:39:06.307Z,23.18
2019-03-11T12:40:17.992Z,23.14
2019-03-11T12:41:21.725Z,23.52
2019-03-11T12:42:25.479Z,23.40
2019-03-11T12:43:29.149Z,21.93
2019-03-11T12:44:32.791Z,21.79
2019-03-11T12:45:36.416Z,22.33
2019-03-11T12:46:39.978Z,22.47
2019-03-11T12:47:43.626Z,22.25
2019-03-11T12:48:47.265Z,22.88
2019-03-11T12:49:50.887Z,21.98
2019-03-11T12:50:54.519Z,21.34
2019-03-11T12:51:58.196Z,21.33
2019-03-11T12:53:01.842Z,20.58
2019-03-11T12:54:05.474Z,21.52
2019-03-11T12:55:09.215Z,21.23
2019-03-11T12:56:12.846Z,20.81
2019-03-11T12:57:16.886Z,20.08
2019-03-11T12:58:20.729Z,19.94
2019-03-11T12:59:24.379Z,19.36
2019-03-11T13:00:28.017Z,18.69
2019-03-11T13:01:31.652Z,18.43
2019-03-11T13:02:35.234Z,18.93
2019-03-11T13:03:38.867Z,18.89
2019-03-11T13:04:42.505Z,18.58
2019-03-11T13:05:46.142Z,18.21
2019-03-11T13:06:49.771Z,18.13
2019-03-11T13:07:53.431Z,17.68
2019-03-11T13:08:57.067Z,17.21
2019-03-11T13:10:00.703Z,17.04
2019-03-11T13:11:04.402Z,16.92
2019-03-11T13:12:08.463Z,16.60
2019-03-11T13:13:12.235Z,16.80
2019-03-11T13:14:16.005Z,16.72
2019-03-11T13:15:19.840Z,16.87
2019-03-11T13:16:23.481Z,17.15
2019-03-11T13:17:27.121Z,17.07
2019-03-11T13:18:36.081Z,17.01
2019-03-11T13:19:39.715Z,16.51
2019-03-11T13:20:43.412Z,17.69
2019-03-11T13:21:47.434Z,17.96
2019-03-11T13:22:52.240Z,18.37
2019-03-11T13:23:55.911Z,19.58
2019-03-11T13:24:59.544Z,18.86
2019-03-11T13:26:03.176Z,19.49
2019-03-11T13:27:06.809Z,19.58
2019-03-11T13:28:10.525Z,19.97
2019-03-11T13:29:14.198Z,19.86
2019-03-11T13:30:18.132Z,20.74
2019-03-11T13:31:21.764Z,21.41
2019-03-11T13:32:27.122Z,21.59
2019-03-11T13:33:30.808Z,21.48
2019-03-11T13:34:34.556Z,22.25
2019-03-11T13:35:38.194Z,21.90
2019-03-11T13:36:41.837Z,22.86
2019-03-11T13:37:45.468Z,22.75
2019-03-11T13:38:49.175Z,24.20
2019-03-11T13:39:53.149Z,24.43
2019-03-11T13:40:56.783Z,24.28
2019-03-11T13:42:00.425Z,24.12
2019-03-11T13:43:04.044Z,25.11
2019-03-11T13:44:08.102Z,24.71
2019-03-11T13:45:18.177Z,25.11